Time;durP1;ratioP1;P1;durP2;ratioP2;P2;SDS_P1;SDS_P2;PMS_P1;PMS_P2;Temp;Humidity;BMP_temperature;BMP_pressure;BME280_temperature;BME280_humidity;BME280_pressure;Samples;Min_cycle;Max_cycle;Signal;HPM_P1;HPM_P2
2024/03/17 00:00:47;;;;;;;6.63;5.77;;;4.90;99.90;;;-141.84;73.20;18525.53;5067092;28;20221;-63
2024/03/17 00:03:13;;;;;;;6.77;5.40;;;5.10;99.90;;;-141.84;73.78;18533.66;5090231;28;20306;-62
2024/03/17 00:05:40;;;;;;;6.70;5.10;;;4.90;99.90;;;-141.84;74.35;18533.66;5073357;28;20696;-62
2024/03/17 00:08:08;;;;;;;6.53;4.97;;;5.00;99.90;;;-141.84;74.11;18553.97;5063739;28;20211;-64
2024/03/17 00:10:35;;;;;;;6.73;5.00;;;4.80;99.90;;;-141.84;74.31;18533.66;5083765;28;20226;-62
2024/03/17 00:13:02;;;;;;;5.60;4.67;;;4.80;99.90;;;-141.84;75.08;18582.44;5063268;28;20223;-64
2024/03/17 00:15:29;;;;;;;6.67;4.63;;;4.80;99.90;;;-141.84;76.40;18696.19;5076246;28;20226;-63
2024/03/17 00:17:56;;;;;;;5.73;4.70;;;4.70;99.90;;;-141.84;76.21;18722.63;5037502;28;20761;-62
2024/03/17 00:20:24;;;;;;;7.73;4.80;;;4.70;99.90;;;-141.84;75.36;18588.53;5080439;28;20352;-64
2024/03/17 00:22:53;;;;;;;7.47;4.97;;;4.70;99.90;;;-141.84;73.68;18491.00;5064807;28;20619;-62
2024/03/17 00:25:21;;;;;;;7.87;5.27;;;4.70;99.90;;;-141.84;74.29;18525.53;5026878;28;20240;-62
2024/03/17 00:27:55;;;;;;;6.33;4.87;;;4.70;99.90;;;-141.84;75.80;18655.56;5075210;28;20230;-64
2024/03/17 00:30:22;;;;;;;7.03;5.07;;;4.70;99.90;;;-141.84;73.80;18521.47;5066417;28;20712;-64
2024/03/17 00:32:48;;;;;;;7.67;6.77;;;4.70;99.90;;;-141.84;74.66;18556.00;5080407;28;20229;-61
2024/03/17 00:35:20;;;;;;;8.37;7.50;;;4.70;99.90;;;-141.84;74.76;18547.88;5065750;28;20231;-62
2024/03/17 00:37:47;;;;;;;8.27;7.23;;;4.70;99.90;;;-141.84;75.40;18629.16;5084051;28;20219;-61
2024/03/17 00:40:16;;;;;;;11.67;8.33;;;4.70;99.90;;;-141.84;76.05;18635.25;5084481;28;20242;-61
2024/03/17 00:42:44;;;;;;;8.27;6.87;;;4.60;99.90;;;-141.84;76.61;18742.94;5068202;28;20615;-61
2024/03/17 00:45:12;;;;;;;7.97;6.23;;;4.60;99.90;;;-141.84;75.23;18580.41;5060208;28;20283;-62
2024/03/17 00:47:39;;;;;;;8.30;7.13;;;4.60;99.90;;;-141.84;75.55;18576.31;5060117;28;20224;-64
2024/03/17 00:50:08;;;;;;;8.17;5.23;;;4.60;99.90;;;-141.84;74.35;18515.38;5064797;28;20544;-63
2024/03/17 00:52:35;;;;;;;9.60;5.50;;;4.60;99.90;;;-141.84;75.92;18637.28;5099205;28;20206;-63
2024/03/17 00:55:02;;;;;;;7.90;5.73;;;4.60;99.90;;;-141.84;76.60;18728.72;5084225;28;20605;-62
2024/03/17 00:57:28;;;;;;;7.20;5.53;;;4.60;99.90;;;-141.84;77.34;18799.81;5068324;28;20700;-63
2024/03/17 00:59:57;;;;;;;8.63;6.07;;;4.50;99.90;;;-141.84;78.27;19015.19;5063963;28;20229;-62
2024/03/17 01:02:24;;;;;;;8.40;5.57;;;4.40;99.90;;;-141.84;78.73;19100.53;5066769;28;20224;-62
2024/03/17 01:04:53;;;;;;;9.27;6.10;;;4.40;99.90;;;-141.84;79.17;19334.22;5061334;28;20205;-62
2024/03/17 01:07:20;;;;;;;7.73;6.30;;;4.40;99.90;;;-141.84;79.50;19448.03;5082693;28;20719;-62
2024/03/17 01:09:48;;;;;;;7.23;5.70;;;4.40;99.90;;;-141.84;78.77;19192.00;5084323;28;20230;-63
2024/03/17 01:12:15;;;;;;;7.80;6.30;;;4.40;99.90;;;-141.84;78.29;18988.78;5083663;28;20704;-62
2024/03/17 01:14:42;;;;;;;8.50;6.10;;;4.40;99.90;;;-141.84;76.09;18578.38;5078305;28;20295;-62
2024/03/17 01:17:12;;;;;;;8.77;6.03;;;4.40;99.90;;;-141.84;76.32;18616.97;5062427;28;20205;-62
2024/03/17 01:19:39;;;;;;;9.83;7.20;;;4.40;99.90;;;-141.84;78.02;18870.94;5089040;28;20203;-62
2024/03/17 01:22:06;;;;;;;8.17;6.27;;;4.40;99.90;;;-141.84;77.50;18795.75;5083380;28;20227;-62
2024/03/17 01:24:35;;;;;;;8.97;5.93;;;4.40;99.90;;;-141.84;78.09;18899.38;5085314;28;20227;-63
2024/03/17 01:27:02;;;;;;;11.33;6.47;;;4.40;99.90;;;-141.84;79.00;19214.34;5085339;28;20253;-62
2024/03/17 01:29:29;;;;;;;9.33;7.17;;;4.30;99.90;;;-141.84;77.64;18814.03;5076139;28;20306;-63
2024/03/17 01:31:56;;;;;;;10.17;7.00;;;4.30;99.90;;;-141.84;77.25;18702.28;5057183;28;20196;-62
2024/03/17 01:34:24;;;;;;;10.50;8.47;;;4.30;99.90;;;-141.84;77.26;18742.94;5082049;28;20711;-63
2024/03/17 01:36:51;;;;;;;9.33;8.10;;;4.20;99.90;;;-141.84;77.72;18889.22;5080361;28;20234;-64
2024/03/17 01:39:21;;;;;;;10.73;8.67;;;4.30;99.90;;;-141.84;77.37;18722.63;5079273;28;20223;-63
2024/03/17 01:41:47;;;;;;;10.07;6.13;;;4.30;99.90;;;-141.84;75.84;18578.38;5078240;28;20235;-61
2024/03/17 01:44:26;;;;;;;7.53;5.27;;;4.30;99.90;;;-141.84;75.33;18513.34;5055209;28;20211;-63
2024/03/17 01:46:53;;;;;;;8.80;4.90;;;4.30;99.90;;;-141.84;76.91;18675.88;5080096;28;20195;-64
2024/03/17 01:49:22;;;;;;;8.40;4.87;;;4.30;99.90;;;-141.84;77.50;18757.16;5078246;28;20278;-62
2024/03/17 01:51:52;;;;;;;6.30;4.87;;;4.20;99.90;;;-141.84;77.09;18706.38;5083828;28;20219;-62
2024/03/17 01:54:20;;;;;;;7.37;5.07;;;4.20;99.90;;;-141.84;76.70;18631.19;5066210;28;20218;-62
2024/03/17 01:56:47;;;;;;;5.67;4.43;;;4.30;99.90;;;-141.84;76.78;18704.31;5065742;28;20238;-63
2024/03/17 01:59:15;;;;;;;5.57;4.57;;;4.30;99.90;;;-141.84;75.84;18580.41;5078245;28;20216;-62
2024/03/17 02:01:41;;;;;;;6.80;4.23;;;4.30;99.90;;;-141.84;77.15;18696.19;5061539;28;20203;-63
2024/03/17 02:04:09;;;;;;;7.97;5.03;;;4.20;99.90;;;-141.84;79.44;19275.31;5063849;28;20228;-63
2024/03/17 02:06:35;;;;;;;6.33;4.47;;;4.20;99.90;;;-141.84;79.95;19665.47;5075144;28;20766;-62
2024/03/17 02:09:04;;;;;;;7.53;4.80;;;4.10;99.90;;;-141.84;78.96;19263.09;5066146;28;20275;-63
2024/03/17 02:11:32;;;;;;;9.30;7.20;;;4.10;99.90;;;-141.84;78.57;19007.06;5070597;28;20228;-62
2024/03/17 02:14:01;;;;;;;8.30;7.13;;;4.10;99.90;;;-141.84;77.88;18816.06;5061334;28;20202;-62
2024/03/17 02:16:28;;;;;;;5.70;5.20;;;4.10;99.90;;;-141.84;75.94;18592.59;5061368;28;20819;-62
2024/03/17 02:18:56;;;;;;;6.37;4.57;;;4.10;99.90;;;-141.84;75.54;18497.09;5062173;28;20438;-61
2024/03/17 02:21:24;;;;;;;6.67;4.63;;;4.20;99.90;;;-141.84;76.17;18584.47;5074500;28;20214;-61
2024/03/17 02:23:53;;;;;;;4.93;4.20;;;4.20;99.90;;;-141.84;77.60;18785.59;5077177;28;20234;-63
2024/03/17 02:26:20;;;;;;;7.17;4.50;;;4.10;99.90;;;-141.84;77.07;18702.28;5062588;28;20696;-62
2024/03/17 02:28:48;;;;;;;6.93;4.63;;;4.00;99.90;;;-141.84;77.67;18755.13;5083274;28;20298;-63
2024/03/17 02:31:16;;;;;;;6.10;4.40;;;4.00;99.90;;;-141.84;78.55;18913.59;5068885;28;20859;-63
2024/03/17 02:33:45;;;;;;;5.60;5.00;;;3.90;99.90;;;-141.84;78.78;19021.31;5073927;28;20572;-62
2024/03/17 02:36:13;;;;;;;7.33;4.23;;;3.90;99.90;;;-141.84;78.08;18854.69;5089550;28;20257;-62
2024/03/17 02:41:43;;;;;;;4.90;4.20;;;3.90;99.90;;;-141.84;76.97;18639.31;4991338;28;20299;-62
2024/03/17 02:44:12;;;;;;;4.97;3.97;;;3.80;99.90;;;-141.84;77.97;18801.84;5049485;28;20219;-61
2024/03/17 02:46:39;;;;;;;5.00;4.07;;;3.80;99.90;;;-141.84;77.94;18807.94;5082906;28;20224;-63
2024/03/17 02:49:08;;;;;;;5.23;4.40;;;3.80;99.90;;;-141.84;79.29;19192.00;5085057;28;20268;-65
2024/03/17 02:51:36;;;;;;;8.63;6.37;;;3.70;99.90;;;-141.84;80.48;19714.25;5092301;28;20269;-63
2024/03/17 02:54:05;;;;;;;10.40;9.43;;;3.70;99.90;;;-141.84;81.45;20653.28;5088468;28;20219;-62
2024/03/17 02:56:34;;;;;;;6.80;5.83;;;3.60;99.90;;;-141.84;82.88;23302.94;5084180;28;20218;-62
2024/03/17 02:59:03;;;;;;;7.33;5.40;;;3.60;99.90;;;-141.84;82.68;23528.72;5082789;28;20216;-61
2024/03/17 03:01:31;;;;;;;6.83;6.10;;;3.50;99.90;;;-141.84;80.83;20114.63;5067398;28;20194;-63
2024/03/17 03:04:00;;;;;;;10.80;6.13;;;3.60;99.90;;;-141.84;80.57;19718.31;5047755;28;20230;-62
2024/03/17 03:06:27;;;;;;;5.13;4.60;;;3.60;99.90;;;-141.84;81.62;20895.19;5068587;28;20591;-63
2024/03/17 03:08:55;;;;;;;6.40;4.63;;;3.50;99.90;;;-141.84;79.24;19265.13;5062081;28;20265;-62
2024/03/17 03:11:22;;;;;;;4.70;4.20;;;3.60;99.90;;;-141.84;77.95;18724.66;5067289;28;20226;-62
2024/03/17 03:13:49;;;;;;;5.03;3.80;;;3.60;99.90;;;-141.84;78.38;18870.94;5082634;28;20195;-63
2024/03/17 03:16:21;;;;;;;6.63;4.27;;;3.50;99.90;;;-141.84;77.89;18684.00;5065586;28;20317;-62
2024/03/17 03:18:48;;;;;;;5.33;4.40;;;3.50;99.90;;;-141.84;79.54;19149.31;5077628;28;20243;-62
2024/03/17 03:21:16;;;;;;;6.20;4.47;;;3.50;99.90;;;-141.84;80.69;19905.28;5068834;28;20210;-61
2024/03/17 03:23:46;;;;;;;6.27;5.17;;;3.40;99.90;;;-141.84;81.40;20669.56;5069147;28;20222;-62
2024/03/17 03:26:14;;;;;;;7.20;5.13;;;3.40;99.90;;;-141.84;80.76;19854.50;5101535;28;20232;-62
2024/03/17 03:28:42;;;;;;;7.60;5.70;;;3.40;99.90;;;-141.84;81.75;20893.16;5068410;28;20253;-62
2024/03/17 03:31:16;;;;;;;7.50;6.40;;;3.30;99.90;;;-141.84;82.54;22308.34;5062660;28;20218;-62
2024/03/17 03:33:45;;;;;;;7.00;5.43;;;3.30;99.90;;;-141.84;82.53;22554.41;5081722;28;20704;-63
2024/03/17 03:36:16;;;;;;;8.40;6.17;;;3.30;99.90;;;-141.84;82.75;23064.94;5086409;28;20205;-66
2024/03/17 03:38:44;;;;;;;7.27;6.13;;;3.30;99.90;;;-141.84;81.97;21438.03;5080089;28;20232;-62
2024/03/17 03:41:16;;;;;;;7.23;5.50;;;3.30;99.90;;;-141.84;80.42;19781.31;5063997;28;20197;-62
2024/03/17 03:43:45;;;;;;;7.83;5.60;;;3.30;99.90;;;-141.84;78.94;19003.00;5082002;28;20210;-64
2024/03/17 03:46:16;;;;;;;8.97;7.00;;;3.40;99.90;;;-141.84;78.89;18915.63;5084773;28;20223;-50
2024/03/17 03:48:45;;;;;;;6.47;5.87;;;3.30;99.90;;;-141.84;80.89;19964.25;5036118;28;20226;-63
2024/03/17 03:51:12;;;;;;;8.70;5.63;;;3.30;99.90;;;-141.84;80.71;19895.13;5063585;28;20223;-51
2024/03/17 03:53:40;;;;;;;6.43;5.10;;;3.30;99.90;;;-141.84;80.52;19724.41;5062080;28;20219;-53
2024/03/17 03:56:08;;;;;;;7.80;5.80;;;3.30;99.90;;;-141.84;81.39;20456.13;5067052;28;20213;-52
2024/03/17 03:58:36;;;;;;;6.73;5.90;;;3.30;99.90;;;-141.84;82.99;22912.38;5084497;28;20277;-53
2024/03/17 04:01:06;;;;;;;9.93;7.43;;;3.20;99.90;;;-141.84;82.48;22647.97;5082260;28;20268;-53
2024/03/17 04:03:36;;;;;;;7.30;6.23;;;3.20;99.90;;;-141.84;82.05;21381.09;5085482;28;20220;-52
2024/03/17 04:06:08;;;;;;;7.03;6.33;;;3.20;99.90;;;-141.84;82.99;22989.69;5069117;28;20261;-54
2024/03/17 04:08:39;;;;;;;9.57;8.10;;;3.10;99.90;;;-141.84;83.47;24324.22;5082392;28;20276;-49
2024/03/17 04:11:07;;;;;;;8.87;6.70;;;3.10;99.90;;;-141.84;84.36;28638.16;5084165;28;20298;-51
2024/03/17 04:13:36;;;;;;;7.07;5.07;;;3.10;99.90;;;-141.84;83.99;26742.19;5068597;28;20774;-54
2024/03/17 04:16:06;;;;;;;6.97;4.90;;;3.10;99.90;;;-141.84;84.38;28320.41;5059935;28;20574;-50
2024/03/17 04:18:34;;;;;;;5.63;4.70;;;3.10;99.90;;;-141.84;83.88;26778.84;5069853;28;20209;-53
2024/03/17 04:21:06;;;;;;;6.70;4.30;;;3.10;99.90;;;-141.84;83.04;24071.91;5065741;28;20274;-52
2024/03/17 04:23:35;;;;;;;6.90;4.30;;;3.10;99.90;;;-141.84;83.73;25103.59;5084423;28;20224;-52
2024/03/17 04:26:04;;;;;;;5.63;4.80;;;3.10;99.90;;;-141.84;82.24;22054.13;5082678;28;20202;-53
2024/03/17 04:28:35;;;;;;;6.20;4.00;;;3.10;99.90;;;-141.84;82.72;22611.38;5084320;28;20200;-51
2024/03/17 04:31:06;;;;;;;6.17;3.80;;;3.10;99.90;;;-141.84;82.49;22086.69;5086524;28;20642;-54
2024/03/17 04:33:36;;;;;;;6.77;4.73;;;3.10;99.90;;;-141.84;81.74;20826.09;5074981;28;20258;-52
2024/03/17 04:36:05;;;;;;;6.70;5.57;;;3.10;99.90;;;-141.84;82.09;21255.03;5080941;28;20732;-51
2024/03/17 04:38:34;;;;;;;7.67;5.77;;;3.10;99.90;;;-141.84;81.48;20817.94;5081744;28;20236;-53
2024/03/17 04:41:05;;;;;;;6.00;4.90;;;3.10;99.90;;;-141.84;79.88;19297.66;5056163;28;20216;-53
2024/03/17 04:43:33;;;;;;;6.97;5.20;;;3.10;99.90;;;-141.84;79.73;19122.91;5082725;28;20209;-53
2024/03/17 04:46:03;;;;;;;5.90;4.90;;;3.10;99.90;;;-141.84;79.84;19216.38;5062156;28;20599;-54
2024/03/17 04:48:32;;;;;;;6.57;4.80;;;3.10;99.90;;;-141.84;81.22;20236.59;5059023;28;20242;-51
2024/03/17 04:51:00;;;;;;;7.43;6.13;;;3.10;99.90;;;-141.84;81.49;20860.66;5069173;28;20691;-51
2024/03/17 04:53:30;;;;;;;7.97;7.17;;;3.10;99.90;;;-141.84;80.97;20155.28;5079138;28;20228;-52
2024/03/17 04:56:02;;;;;;;9.70;8.63;;;3.20;99.90;;;-141.84;79.61;19167.59;5078705;28;20256;-51
2024/03/17 04:58:29;;;;;;;8.80;7.80;;;2.90;99.90;;;-141.84;78.94;18870.94;5061360;28;20224;-51
2024/03/17 05:00:57;;;;;;;6.67;6.03;;;3.10;99.90;;;-141.84;78.96;18931.91;5071615;28;20243;-51
2024/03/17 05:03:24;;;;;;;7.87;6.00;;;3.10;99.90;;;-141.84;77.41;18590.56;5068687;28;20249;-51
2024/03/17 05:06:01;;;;;;;8.03;5.77;;;3.10;99.90;;;-141.84;78.09;18694.16;5060093;28;20807;-48
2024/03/17 05:08:33;;;;;;;6.30;4.67;;;3.10;99.90;;;-141.84;78.25;18795.75;5063382;28;20220;-51
2024/03/17 05:11:04;;;;;;;6.47;4.47;;;3.10;99.90;;;-141.84;78.90;18877.03;5081058;28;20230;-51
2024/03/17 05:13:32;;;;;;;5.77;4.67;;;3.10;99.90;;;-141.84;78.84;18870.94;5084352;28;20258;-51
2024/03/17 05:16:01;;;;;;;8.07;6.60;;;3.10;99.90;;;-141.84;79.82;19153.38;5082177;28;20225;-50
2024/03/17 05:18:32;;;;;;;9.67;7.80;;;3.00;99.90;;;-141.84;81.01;19893.09;5080975;28;20216;-53
2024/03/17 05:21:00;;;;;;;8.27;6.20;;;3.00;99.90;;;-141.84;81.58;20817.94;5073181;28;20218;-51
2024/03/17 05:23:30;;;;;;;8.80;7.57;;;3.00;99.90;;;-141.84;80.16;19464.28;5058680;28;20534;-50
2024/03/17 05:26:00;;;;;;;8.20;7.40;;;3.10;99.90;;;-141.84;78.52;18814.03;5059818;28;20237;-49
2024/03/17 05:28:29;;;;;;;8.13;6.50;;;3.10;99.90;;;-141.84;78.36;18773.41;5086535;28;20686;-49
2024/03/17 05:30:57;;;;;;;8.63;7.37;;;3.10;99.90;;;-141.84;78.90;18866.88;5078559;28;20226;-49
2024/03/17 05:33:26;;;;;;;8.50;6.80;;;3.10;99.90;;;-141.84;78.34;18826.25;5077884;28;20213;-49
2024/03/17 05:35:56;;;;;;;7.60;6.33;;;3.10;99.90;;;-141.84;78.85;18858.75;5080858;28;20235;-54
2024/03/17 05:38:26;;;;;;;8.37;6.70;;;3.10;99.90;;;-141.84;78.71;18877.03;5077771;28;20226;-54
2024/03/17 05:40:59;;;;;;;6.47;5.87;;;3.20;99.90;;;-141.84;78.59;18866.88;5081566;28;20199;-52
2024/03/17 05:43:28;;;;;;;7.10;6.40;;;3.20;99.90;;;-141.84;77.46;18677.91;5080993;28;20232;-52
2024/03/17 05:45:59;;;;;;;6.60;5.70;;;3.20;99.90;;;-141.84;78.16;18747.00;5064460;28;20223;-53
2024/03/17 05:48:26;;;;;;;8.77;7.20;;;3.20;99.90;;;-141.84;77.95;18698.22;5065602;28;20220;-51
2024/03/17 05:50:56;;;;;;;7.43;6.67;;;3.30;99.90;;;-141.84;78.43;18842.50;5072616;28;20233;-49
2024/03/17 05:53:24;;;;;;;8.90;8.00;;;3.30;99.90;;;-141.84;77.25;18627.13;5082744;28;20218;-51
2024/03/17 05:55:59;;;;;;;10.27;6.00;;;3.30;99.90;;;-141.84;77.36;18655.56;5083197;28;20217;-52
2024/03/17 05:58:26;;;;;;;6.23;5.60;;;3.40;99.90;;;-141.84;76.63;18537.72;5063935;28;20264;-53
2024/03/17 06:00:58;;;;;;;5.37;4.60;;;3.50;99.90;;;-141.84;74.90;18403.63;5073603;28;20221;-53
2024/03/17 06:03:25;;;;;;;7.77;4.83;;;3.60;99.90;;;-141.84;74.64;18419.88;5089764;28;20227;-53
2024/03/17 06:05:56;;;;;;;5.83;4.10;;;3.70;99.90;;;-141.84;76.60;18537.72;5085150;28;20235;-54
2024/03/17 06:08:24;;;;;;;5.93;4.37;;;3.70;99.90;;;-141.84;78.11;18795.75;5066331;28;20244;-52
2024/03/17 06:11:00;;;;;;;4.90;4.40;;;3.70;99.90;;;-141.84;78.52;18938.00;5085625;28;20230;-54
2024/03/17 06:13:28;;;;;;;4.87;4.30;;;3.70;99.90;;;-141.84;79.41;19244.81;5094306;28;20219;-62
2024/03/17 06:16:00;;;;;;;6.07;5.00;;;3.70;99.90;;;-141.84;78.24;18828.28;5068896;28;20217;-61
2024/03/17 06:18:28;;;;;;;7.30;5.13;;;3.80;99.90;;;-141.84;77.68;18755.13;5079526;28;20246;-52
2024/03/17 06:20:58;;;;;;;8.53;6.17;;;3.80;99.90;;;-141.84;77.67;18716.53;5086549;28;20226;-53
2024/03/17 06:23:26;;;;;;;6.40;5.70;;;3.90;99.90;;;-141.84;76.05;18541.78;5088117;28;20224;-62
2024/03/17 06:25:57;;;;;;;6.80;6.10;;;4.00;99.90;;;-141.84;76.04;18515.38;5088214;28;20195;-62
2024/03/17 06:28:26;;;;;;;9.10;6.10;;;4.00;99.90;;;-141.84;75.92;18515.38;5068625;28;20570;-62
2024/03/17 06:30:59;;;;;;;6.90;5.03;;;4.10;99.90;;;-141.84;75.24;18486.94;5069108;28;20224;-52
2024/03/17 06:33:29;;;;;;;7.87;5.17;;;4.10;99.90;;;-141.84;74.93;18448.34;5078080;28;20763;-53
2024/03/17 06:35:57;;;;;;;6.27;4.83;;;4.20;99.90;;;-141.84;74.58;18452.41;5086226;28;20221;-53
2024/03/17 06:38:24;;;;;;;7.70;5.47;;;4.20;99.90;;;-141.84;74.13;18421.91;5076453;28;20227;-53
2024/03/17 06:40:56;;;;;;;7.30;4.50;;;4.40;99.90;;;-141.84;72.75;18395.50;5060993;28;20224;-52
2024/03/17 06:43:24;;;;;;;6.70;4.20;;;4.50;99.90;;;-141.84;71.94;18367.06;5090073;28;20216;-50
2024/03/17 06:45:57;;;;;;;6.00;4.33;;;4.50;99.90;;;-141.84;70.90;18371.13;5086774;28;20224;-53
2024/03/17 06:48:26;;;;;;;6.20;4.30;;;4.60;99.90;;;-141.84;71.43;18365.03;5089203;28;20218;-52
2024/03/17 06:50:56;;;;;;;5.73;3.80;;;4.70;99.90;;;-141.84;70.67;18348.78;5094177;28;20231;-61
2024/03/17 06:53:26;;;;;;;7.07;5.13;;;4.80;99.90;;;-141.84;69.67;18352.84;5085124;28;20236;-61
2024/03/17 06:55:57;;;;;;;6.27;4.30;;;4.90;99.90;;;-141.84;68.23;18371.13;5086116;28;20814;-62
2024/03/17 06:58:29;;;;;;;7.50;4.03;;;5.00;99.90;;;-141.84;67.40;18399.56;5086072;28;20212;-62
2024/03/17 07:00:57;;;;;;;6.17;4.10;;;5.30;99.90;;;-141.84;66.00;18397.53;5088439;28;20224;-61
2024/03/17 07:03:26;;;;;;;6.70;4.30;;;5.60;99.90;;;-141.84;63.24;18432.09;5071785;28;20217;-61
2024/03/17 07:05:58;;;;;;;6.67;4.00;;;5.90;99.90;;;-141.84;62.83;18430.06;5073602;28;20233;-62
2024/03/17 07:08:26;;;;;;;5.80;4.07;;;6.10;99.90;;;-141.84;60.07;18456.47;5074896;28;20220;-61
2024/03/17 07:11:02;;;;;;;5.30;3.83;;;6.30;99.90;;;-141.84;60.48;18495.06;5089071;28;20223;-61
2024/03/17 07:13:37;;;;;;;6.10;4.17;;;6.50;99.90;;;-141.84;61.37;18495.06;5084455;28;20718;-62
2024/03/17 07:16:06;;;;;;;6.17;4.00;;;6.50;99.90;;;-141.84;60.12;18468.66;5084811;28;20267;-61
2024/03/17 07:18:36;;;;;;;4.87;4.07;;;6.60;99.90;;;-141.84;58.11;18488.97;5072251;28;20266;-61
2024/03/17 07:21:05;;;;;;;4.30;3.50;;;6.80;99.90;;;-141.84;59.65;18519.44;5090060;28;20220;-51
2024/03/17 07:23:37;;;;;;;5.60;3.57;;;6.70;99.90;;;-141.84;59.87;18464.59;5093658;28;20231;-61
2024/03/17 07:26:05;;;;;;;5.17;3.70;;;6.70;99.90;;;-141.84;58.68;18495.06;5084097;28;20254;-61
2024/03/17 07:28:40;;;;;;;6.10;3.90;;;6.80;99.90;;;-141.84;58.70;18533.66;5067856;28;20201;-62
2024/03/17 07:31:11;;;;;;;5.30;3.90;;;6.90;99.90;;;-141.84;59.25;18499.13;5083435;28;20268;-52
2024/03/17 07:33:42;;;;;;;3.73;3.30;;;7.10;99.90;;;-141.84;58.77;18525.53;5066805;28;20212;-61
2024/03/17 07:36:11;;;;;;;8.10;3.83;;;7.20;99.90;;;-141.84;58.21;18539.75;5076960;28;20232;-62
2024/03/17 07:38:42;;;;;;;6.80;3.90;;;7.30;99.90;;;-141.84;57.36;18525.53;5072360;28;20225;-62
2024/03/17 07:41:11;;;;;;;7.73;3.97;;;7.30;99.90;;;-141.84;57.76;18545.84;5065866;28;20213;-62
2024/03/17 07:43:43;;;;;;;7.67;3.63;;;7.40;99.90;;;-141.84;56.34;18582.44;5086195;28;20230;-49
2024/03/17 07:46:16;;;;;;;7.27;4.20;;;7.50;99.90;;;-141.84;57.45;18582.44;5086674;28;20216;-51
2024/03/17 07:48:45;;;;;;;6.27;3.40;;;7.50;99.90;;;-141.84;57.95;18582.44;5084876;28;20225;-51
2024/03/17 07:51:17;;;;;;;5.20;3.50;;;7.60;99.90;;;-141.84;57.20;18570.22;5086884;28;20300;-52
2024/03/17 07:53:48;;;;;;;5.40;3.60;;;7.80;99.90;;;-141.84;57.03;18594.63;5095269;28;20703;-52
2024/03/17 07:56:17;;;;;;;7.77;5.60;;;7.90;99.90;;;-141.84;56.00;18598.69;5086351;28;20207;-52
2024/03/17 07:58:48;;;;;;;6.97;5.73;;;8.00;99.90;;;-141.84;55.75;18586.50;5080141;28;20576;-49
2024/03/17 08:01:17;;;;;;;5.77;3.80;;;8.10;99.90;;;-141.84;55.88;18610.88;5081011;28;20236;-50
2024/03/17 08:03:49;;;;;;;7.70;4.20;;;8.10;99.90;;;-141.84;55.31;18588.53;5085284;28;20747;-52
2024/03/17 08:06:16;;;;;;;5.80;4.27;;;8.00;99.90;;;-141.84;56.20;18578.38;5076864;28;20215;-62
2024/03/17 08:08:44;;;;;;;4.77;4.27;;;8.00;99.90;;;-141.84;57.74;18574.28;5070375;28;20224;-61
2024/03/17 08:11:16;;;;;;;7.13;4.50;;;7.90;99.90;;;-141.84;58.17;18531.63;5083960;28;20796;-52
2024/03/17 08:13:44;;;;;;;6.03;4.13;;;7.70;99.90;;;-141.84;57.97;18549.91;5069704;28;20197;-62
2024/03/17 08:16:16;;;;;;;10.23;3.30;;;7.80;99.90;;;-141.84;57.85;18558.03;5100028;28;20220;-62
2024/03/17 08:18:44;;;;;;;6.43;3.63;;;7.90;99.90;;;-141.84;57.68;18549.91;5090753;28;20232;-48
2024/03/17 08:21:16;;;;;;;7.17;3.43;;;8.00;99.90;;;-141.84;57.63;18588.53;5083506;28;20221;-51
2024/03/17 08:23:46;;;;;;;7.23;3.53;;;7.90;99.90;;;-141.84;57.38;18612.91;5090263;28;20228;-52
2024/03/17 08:26:17;;;;;;;3.67;2.60;;;8.10;99.90;;;-141.84;57.67;18592.59;5083844;28;20201;-49
2024/03/17 08:28:46;;;;;;;6.37;3.10;;;8.10;99.90;;;-141.84;56.71;18590.56;5066668;28;20201;-63
2024/03/17 08:31:16;;;;;;;16.73;7.83;;;8.20;99.90;;;-141.84;57.89;18549.91;5074867;28;21072;-62
2024/03/17 08:33:44;;;;;;;6.63;3.87;;;8.10;99.90;;;-141.84;57.90;18533.66;5066166;28;20274;-62
2024/03/17 08:36:18;;;;;;;6.70;3.57;;;8.00;99.90;;;-141.84;56.70;18612.91;5065601;28;20252;-61
2024/03/17 08:38:47;;;;;;;6.47;3.80;;;8.10;99.90;;;-141.84;57.10;18592.59;5066144;28;20207;-62
2024/03/17 08:41:17;;;;;;;9.53;4.40;;;8.20;99.90;;;-141.84;56.08;18600.72;5066253;28;20227;-62
2024/03/17 08:43:46;;;;;;;6.33;3.50;;;8.20;99.90;;;-141.84;56.67;18592.59;5063887;28;20952;-51
2024/03/17 08:46:16;;;;;;;6.27;3.30;;;8.30;99.90;;;-141.84;55.51;18621.03;5082730;28;20826;-62
2024/03/17 08:48:44;;;;;;;8.00;3.90;;;8.50;99.90;;;-141.84;54.79;18602.75;5078199;28;20231;-52
2024/03/17 08:51:16;;;;;;;7.53;3.73;;;8.50;99.90;;;-141.84;55.50;18606.81;5083036;28;20228;-54
2024/03/17 08:53:43;;;;;;;5.97;3.27;;;8.50;99.90;;;-141.84;56.11;18600.72;5089047;28;20695;-62
2024/03/17 08:56:16;;;;;;;7.03;4.07;;;8.60;99.90;;;-141.84;55.96;18657.59;5084839;28;20245;-61
2024/03/17 08:58:44;;;;;;;7.10;3.40;;;8.60;99.90;;;-141.84;55.13;18619.00;5066513;28;20200;-62
2024/03/17 09:01:16;;;;;;;7.27;3.43;;;8.60;99.90;;;-141.84;53.66;18631.19;5080588;28;20216;-50
2024/03/17 09:03:44;;;;;;;9.13;3.17;;;8.70;99.90;;;-141.84;53.61;18627.13;5065138;28;20266;-61
2024/03/17 09:06:19;;;;;;;8.93;3.60;;;8.80;99.90;;;-141.84;52.00;18661.66;5070915;28;20224;-62
2024/03/17 09:08:46;;;;;;;8.13;3.53;;;8.80;99.90;;;-141.84;52.83;18639.31;5082784;28;20228;-61
2024/03/17 09:11:16;;;;;;;6.47;3.50;;;8.70;99.90;;;-141.84;52.87;18665.72;5060431;28;20288;-52
2024/03/17 09:13:45;;;;;;;6.80;3.13;;;8.80;99.90;;;-141.84;52.09;18696.19;5087214;28;20193;-61
2024/03/17 09:16:18;;;;;;;8.53;4.17;;;9.30;99.90;;;-141.84;50.94;18690.09;5064311;28;20243;-62
2024/03/17 09:18:45;;;;;;;4.63;3.20;;;9.20;99.90;;;-141.84;51.25;18696.19;5081374;28;20224;-62
2024/03/17 09:21:17;;;;;;;9.87;3.80;;;9.20;99.90;;;-141.84;50.54;18716.53;5086502;28;20254;-62
2024/03/17 09:23:44;;;;;;;8.13;3.40;;;9.40;99.90;;;-141.84;48.69;18753.09;5089871;28;20219;-62
2024/03/17 09:26:17;;;;;;;7.33;3.30;;;9.60;99.90;;;-141.84;48.53;18799.81;5082764;28;20201;-62
2024/03/17 09:28:46;;;;;;;8.33;3.40;;;9.90;99.90;;;-141.84;48.59;18757.16;5064959;28;20200;-62
2024/03/17 09:31:16;;;;;;;6.77;3.50;;;9.80;99.90;;;-141.84;48.55;18749.03;5073147;28;20212;-63
2024/03/17 09:33:44;;;;;;;11.33;4.17;;;9.80;99.90;;;-141.84;48.71;18805.91;5079075;28;20220;-53
2024/03/17 09:36:16;;;;;;;5.87;3.20;;;9.90;99.90;;;-141.84;46.96;18809.97;5082718;28;20719;-54
2024/03/17 09:38:45;;;;;;;4.67;3.67;;;10.10;99.90;;;-141.84;46.50;18850.63;5034145;28;20228;-53
2024/03/17 09:41:24;;;;;;;5.87;3.60;;;10.20;99.90;;;-141.84;46.19;18832.34;5081410;28;20235;-51
2024/03/17 09:43:58;;;;;;;5.03;3.20;;;10.30;99.90;;;-141.84;45.86;18834.38;5078036;28;20222;-52
2024/03/17 09:46:28;;;;;;;7.97;4.03;;;10.40;99.90;;;-141.84;46.13;18889.22;5085207;28;20218;-51
2024/03/17 09:48:57;;;;;;;7.03;3.77;;;10.40;99.90;;;-141.84;46.41;18858.75;5082472;28;20224;-51
2024/03/17 09:51:26;;;;;;;7.87;3.40;;;10.50;99.90;;;-141.84;45.07;18901.41;5074497;28;20220;-51
2024/03/17 09:53:56;;;;;;;5.63;3.13;;;10.60;99.90;;;-141.84;44.43;18870.94;5067187;28;20243;-53
2024/03/17 09:56:24;;;;;;;6.43;3.20;;;10.70;99.90;;;-141.84;45.54;18887.19;5054181;28;20763;-52
2024/03/17 09:58:56;;;;;;;7.23;3.70;;;10.60;99.90;;;-141.84;44.58;18909.53;5068217;28;20205;-52
2024/03/17 10:01:25;;;;;;;3.83;3.17;;;10.60;99.90;;;-141.84;45.72;18887.19;5083164;28;20238;-50
2024/03/17 10:03:58;;;;;;;4.43;2.87;;;10.60;99.90;;;-141.84;45.18;18877.03;5085139;28;20216;-53
2024/03/17 10:06:28;;;;;;;10.97;2.90;;;10.60;99.90;;;-141.84;44.24;18921.75;5069527;28;20217;-52
2024/03/17 10:08:58;;;;;;;6.70;3.13;;;10.70;99.90;;;-141.84;44.38;18931.91;5068741;28;20225;-51
2024/03/17 10:11:36;;;;;;;6.60;3.72;;;10.70;99.90;;;-141.84;44.02;18952.22;5064411;28;20221;-52
2024/03/17 10:14:07;;;;;;;5.97;3.10;;;10.70;99.90;;;-141.84;44.60;18923.78;5065949;28;20236;-55
2024/03/17 10:16:38;;;;;;;5.47;3.27;;;10.80;99.90;;;-141.84;43.59;18944.09;5085787;28;20215;-54
2024/03/17 10:19:15;;;;;;;4.30;2.90;;;10.80;99.90;;;-141.84;44.44;18911.56;5085112;28;20238;-50
2024/03/17 10:21:47;;;;;;;4.60;2.93;;;10.60;99.90;;;-141.84;44.28;18923.78;5093352;28;20704;-53
2024/03/17 10:24:22;;;;;;;4.57;3.30;;;10.60;99.90;;;-141.84;44.26;18940.03;5085354;28;20220;-58